עמוד ראשי
METAR-TAF:

METAR-TAF

שדות תעופה :

Ilo, פרו

קו רוחב: 17-41-45S, קו אורך: 071-20-35W, גובה: 22מטר

תצפית מזג אוויר נוכחית

הדו"ח נערך לפני 6 שעות ו 4דקות, בשעה 21:00 UTC
רוח 9קשר מכיוון דרום
טמפרטורת 18 צלסיוס
לחות 73%
לחץ 1018 hPa
ראות 10 קילומטר או יותר
מעונן בגובה 2800רגל

METAR: SPLO 242100Z 18009KT 9999 OVC028 18/13 Q1018 RMK TX19.4 PP000

זמן: 22:04 (03:04 UTC)

תחזית

הדו"ח נערך לפני 9 שעות ו 53דקות, בשעה 17:11 UTC
תחזית בתוקף מ 24 ב 18 UTC עד 25 ב 18 UTC
רוח 10קשר מכיוון דרום
ראות 10 קילומטר או יותר
עננים פזורים בגובה 3000רגל

TAF: SPLO 241711Z 2418/2518 19010KT 9999 SCT030 TX19/2419Z TN14/2510Z

תצפיות ותחזיות מזג אוויר לגבי יותר מ- 4,000 שדות תעופה ברחבי העולם. דוחות METAR ו- TAF.

התחנות הזמינות מסומנות בנקודות צהובות ואדומות על גבי המפה.

העבר את העכבר לנקודה הצבעונית על מנת לראות את שם התחנה.

לאחר מכן, לחץ כדי לראות את תוכן ואת תחזיות מזג האוויר.

כדי לשנות את המפה: לחץ על הכפתורים הירוקים עם הפלוס השחור כדי להתקרב; על הכפתור הירוק עם המקף כדי להתרחק; או בחיצים הירוקים למפות סמוכות.


METAR-TAF: